Time;durP1;ratioP1;P1;durP2;ratioP2;P2;SDS_P1;SDS_P2;PMS_P1;PMS_P2;Temp;Humidity;BMP_temperature;BMP_pressure;BME280_temperature;BME280_humidity;BME280_pressure;Samples;Min_cycle;Max_cycle;Signal;HPM_P1;HPM_P2
2023/07/13 00:01:50;;;;;;;3.00;2.10;;;;;;;19.61;65.83;98553.46;105922;1256;61121;-23
2023/07/13 00:04:18;;;;;;;3.20;2.00;;;;;;;19.98;64.29;98550.55;105900;1251;73746;-23
2023/07/13 00:06:46;;;;;;;3.30;2.30;;;;;;;19.96;63.92;98550.22;105791;1251;72075;-23
2023/07/13 00:09:15;;;;;;;5.30;2.40;;;;;;;19.86;64.30;98548.70;105772;1251;72683;-23
2023/07/13 00:11:42;;;;;;;5.70;2.10;;;;;;;19.73;64.83;98548.20;105691;1251;61152;-23
2023/07/13 00:14:11;;;;;;;2.70;2.10;;;;;;;19.63;65.07;98548.80;105577;1256;61779;-23
2023/07/13 00:16:40;;;;;;;3.60;1.80;;;;;;;19.50;65.54;98545.30;105723;1251;73821;-23
2023/07/13 00:19:08;;;;;;;4.80;2.20;;;;;;;19.40;65.87;98544.51;105692;1257;73878;-23
2023/07/13 00:21:35;;;;;;;2.80;2.10;;;;;;;19.28;66.17;98541.71;105914;1251;72721;-23
2023/07/13 00:24:03;;;;;;;4.80;2.20;;;;;;;19.14;67.18;98541.67;105724;1251;61039;-23
2023/07/13 00:26:32;;;;;;;4.60;2.40;;;;;;;19.03;67.63;98539.23;105735;1259;61195;-23
2023/07/13 00:28:59;;;;;;;2.80;1.30;;;;;;;18.97;68.19;98537.16;105910;1251;74349;-25
2023/07/13 00:31:26;;;;;;;3.00;1.60;;;;;;;19.51;66.70;98532.81;105878;1251;74076;-23
2023/07/13 00:33:52;;;;;;;3.60;1.90;;;;;;;20.05;64.67;98533.61;105953;1251;72426;-23
2023/07/13 00:36:20;;;;;;;2.70;1.80;;;;;;;20.13;63.85;98529.21;105817;1254;61000;-23
2023/07/13 00:38:47;;;;;;;3.40;2.20;;;;;;;20.04;64.18;98524.73;105690;1259;63185;-23
2023/07/13 00:41:14;;;;;;;2.40;1.90;;;;;;;19.88;64.22;98524.81;105775;1251;73816;-23
2023/07/13 00:43:41;;;;;;;3.60;2.30;;;;;;;19.66;64.63;98522.48;105829;1256;74840;-23
2023/07/13 00:46:30;;;;;;;2.50;2.10;;;;;;;19.49;65.00;98525.87;105746;1254;72547;-23
2023/07/13 00:49:00;;;;;;;3.80;2.20;;;;;;;19.37;65.49;98530.64;105581;1254;61154;-23
2023/07/13 00:51:33;;;;;;;2.80;2.00;;;;;;;19.27;65.93;98534.89;105695;1256;61228;-22
2023/07/13 00:54:04;;;;;;;3.50;2.10;;;;;;;19.21;66.53;98535.58;105703;1254;73726;-23
2023/07/13 00:56:32;;;;;;;2.80;1.80;;;;;;;19.14;67.08;98535.71;105662;1251;74234;-22
2023/07/13 00:59:00;;;;;;;2.10;1.40;;;;;;;19.08;67.64;98532.42;105462;1254;72340;-22
2023/07/13 01:01:28;;;;;;;1.70;1.50;;;;;;;19.57;67.74;98525.05;105716;1254;61217;-22
2023/07/13 01:03:54;;;;;;;2.20;1.50;;;;;;;20.15;67.08;98528.27;105773;1252;61169;-22
2023/07/13 01:06:21;;;;;;;1.60;1.50;;;;;;;20.26;66.67;98524.60;105936;1251;73777;-22
2023/07/13 01:08:49;;;;;;;1.80;1.60;;;;;;;20.11;66.85;98519.16;105685;1256;74280;-22
2023/07/13 01:11:21;;;;;;;1.80;1.60;;;;;;;19.91;68.05;98520.12;105705;1251;72347;-22
2023/07/13 01:13:49;;;;;;;1.80;1.60;;;;;;;19.65;67.87;98516.67;105641;1251;61059;-22
2023/07/13 01:16:25;;;;;;;2.80;2.00;;;;;;;19.42;69.17;98519.98;105736;1251;61180;-22
2023/07/13 01:18:58;;;;;;;2.70;2.20;;;;;;;19.21;70.52;98515.69;105666;1254;73636;-22
2023/07/13 01:21:26;;;;;;;4.50;1.80;;;;;;;19.07;71.59;98514.39;105655;1254;73091;-22
2023/07/13 01:23:52;;;;;;;4.40;1.60;;;;;;;19.49;71.07;98511.45;105782;1253;72647;-22
2023/07/13 01:26:21;;;;;;;2.90;2.00;;;;;;;19.93;68.00;98515.05;105703;1252;61156;-22
2023/07/13 01:28:48;;;;;;;2.00;1.80;;;;;;;19.87;67.25;98518.91;105459;1260;61557;-22
2023/07/13 01:31:17;;;;;;;4.50;2.10;;;;;;;19.74;67.65;98516.39;105763;1251;73774;-22
2023/07/13 01:33:45;;;;;;;4.80;2.20;;;;;;;19.57;68.29;98515.09;105866;1251;74237;-22
2023/07/13 01:36:21;;;;;;;3.70;2.20;;;;;;;19.39;68.38;98518.67;105822;1256;72322;-22
2023/07/13 01:38:52;;;;;;;3.00;2.20;;;;;;;19.22;69.13;98519.31;105752;1251;61166;-22
2023/07/13 01:41:19;;;;;;;4.00;2.60;;;;;;;19.06;69.52;98514.55;105752;1257;61603;-22
2023/07/13 01:43:46;;;;;;;4.50;2.00;;;;;;;18.93;70.52;98517.20;105938;1251;73841;-22
2023/07/13 01:46:13;;;;;;;2.60;1.50;;;;;;;19.35;70.50;98509.14;105930;1251;74219;-22
2023/07/13 01:48:46;;;;;;;4.30;2.00;;;;;;;19.88;69.16;98501.45;105843;1251;73385;-23
2023/07/13 01:51:13;;;;;;;4.50;2.00;;;;;;;19.95;68.88;98496.27;105688;1254;61110;-22
2023/07/13 01:53:41;;;;;;;5.60;2.10;;;;;;;19.81;68.93;98492.68;105906;1256;61140;-22
2023/07/13 01:56:08;;;;;;;9.60;2.50;;;;;;;19.61;69.13;98500.66;105781;1251;73499;-22
2023/07/13 01:58:36;;;;;;;8.80;2.80;;;;;;;19.37;69.44;98505.46;105818;1251;74243;-24
2023/07/13 02:01:03;;;;;;;8.40;2.90;;;;;;;19.12;70.06;98504.88;105679;1254;72512;-23
2023/07/13 02:03:30;;;;;;;9.80;2.70;;;;;;;18.94;70.65;98502.85;105840;1251;61124;-22
2023/07/13 02:05:58;;;;;;;7.30;2.30;;;;;;;18.78;71.26;98503.81;105760;1253;61176;-22
2023/07/13 02:08:25;;;;;;;6.30;2.20;;;;;;;19.06;70.34;98503.26;105696;1254;73680;-22
2023/07/13 02:10:52;;;;;;;6.60;2.30;;;;;;;19.38;69.47;98504.55;105649;1255;74294;-22
2023/07/13 02:13:20;;;;;;;10.10;2.80;;;;;;;19.42;68.85;98496.68;105445;1260;72683;-22
2023/07/13 02:15:50;;;;;;;11.40;3.50;;;;;;;19.33;69.24;98501.17;105503;1254;61767;-22
2023/07/13 02:18:18;;;;;;;7.80;3.50;;;;;;;19.16;69.62;98495.25;105477;1259;61154;-22
2023/07/13 02:20:45;;;;;;;7.30;2.60;;;;;;;18.98;70.05;98491.63;105782;1251;73809;-22
2023/07/13 02:23:12;;;;;;;5.90;2.60;;;;;;;18.84;70.69;98488.97;105862;1251;74392;-23
2023/07/13 02:25:40;;;;;;;16.00;3.10;;;;;;;18.65;71.69;98486.16;105921;1251;72703;-23
2023/07/13 02:28:07;;;;;;;9.70;2.30;;;;;;;19.00;71.14;98483.80;105813;1254;61022;-22
2023/07/13 02:30:35;;;;;;;6.60;2.80;;;;;;;19.35;69.63;98480.52;105795;1256;61144;-22
2023/07/13 02:33:02;;;;;;;7.40;2.40;;;;;;;19.37;69.38;98477.48;105753;1251;73846;-22
2023/07/13 02:35:30;;;;;;;12.30;3.10;;;;;;;19.25;69.59;98477.20;105715;1254;74348;-22
2023/07/13 02:37:58;;;;;;;7.10;3.10;;;;;;;18.99;70.38;98477.06;105635;1254;72427;-22
2023/07/13 02:40:26;;;;;;;8.00;3.60;;;;;;;18.82;70.40;98472.48;105714;1251;61133;-22
2023/07/13 02:42:53;;;;;;;6.30;2.80;;;;;;;18.68;71.22;98472.46;105793;1252;61143;-22
2023/07/13 02:45:20;;;;;;;4.20;1.80;;;;;;;18.49;72.21;98473.23;105509;1251;73728;-22
2023/07/13 02:47:47;;;;;;;5.10;2.40;;;;;;;18.80;71.46;98471.49;105926;1251;74096;-22
2023/07/13 02:50:14;;;;;;;7.10;2.50;;;;;;;19.05;70.75;98470.21;105691;1251;72446;-22
2023/07/13 02:52:41;;;;;;;6.00;2.20;;;;;;;19.00;70.64;98466.60;105682;1251;61137;-22
2023/07/13 02:55:08;;;;;;;6.50;2.30;;;;;;;18.82;71.15;98463.88;105758;1257;61109;-23
2023/07/13 02:57:35;;;;;;;5.60;2.40;;;;;;;18.69;71.58;98464.97;105634;1254;73756;-22
2023/07/13 03:00:05;;;;;;;8.10;3.20;;;;;;;18.57;72.24;98469.27;105565;1254;74114;-22
2023/07/13 03:02:33;;;;;;;6.90;2.40;;;;;;;18.44;72.94;98472.85;103249;1259;2762878;-22
2023/07/13 03:05:00;;;;;;;9.90;2.70;;;;;;;18.87;72.12;98469.39;105661;1251;61182;-23
2023/07/13 03:07:28;;;;;;;4.80;2.40;;;;;;;19.06;71.21;98476.88;105670;1252;61173;-22
2023/07/13 03:09:56;;;;;;;8.30;2.80;;;;;;;19.01;71.02;98480.16;105615;1251;73824;-22
2023/07/13 03:12:24;;;;;;;4.40;2.30;;;;;;;18.81;71.75;98483.71;105794;1251;74636;-22
2023/07/13 03:14:52;;;;;;;5.10;2.60;;;;;;;18.63;72.62;98486.27;105761;1251;72711;-22
2023/07/13 03:17:19;;;;;;;7.00;2.50;;;;;;;18.50;73.42;98488.09;105519;1254;61163;-22
2023/07/13 03:19:49;;;;;;;3.30;2.30;;;;;;;18.50;74.00;98489.69;105661;1256;61148;-22
2023/07/13 03:22:18;;;;;;;4.80;2.70;;;;;;;18.90;72.73;98499.32;105901;1251;73854;-22
2023/07/13 03:24:45;;;;;;;3.20;2.20;;;;;;;19.16;71.88;98505.36;105613;1257;74096;-22
2023/07/13 03:27:12;;;;;;;5.00;2.40;;;;;;;19.18;71.61;98506.05;105746;1253;72516;-22
2023/07/13 03:29:40;;;;;;;3.20;2.30;;;;;;;18.96;72.42;98498.07;105576;1255;61073;-23
2023/07/13 03:32:08;;;;;;;6.30;2.50;;;;;;;18.87;72.96;98494.60;105738;1258;61144;-23
2023/07/13 03:34:35;;;;;;;3.70;2.30;;;;;;;18.70;73.45;98494.70;105776;1251;73885;-22
2023/07/13 03:37:02;;;;;;;2.30;1.70;;;;;;;18.64;73.96;98487.39;105936;1256;74280;-23
2023/07/13 03:39:29;;;;;;;3.80;2.10;;;;;;;19.14;73.08;98486.54;105801;1255;72787;-22
2023/07/13 03:41:57;;;;;;;2.90;2.50;;;;;;;19.55;71.56;98479.86;105789;1252;61149;-23
2023/07/13 03:44:24;;;;;;;2.40;2.20;;;;;;;19.56;71.04;98483.14;105919;1252;61093;-23
2023/07/13 03:46:54;;;;;;;4.40;2.60;;;;;;;19.45;71.40;98489.83;105886;1254;73669;-24
2023/07/13 03:49:24;;;;;;;3.70;3.20;;;;;;;19.21;72.15;98495.11;105718;1260;74326;-23
2023/07/13 03:51:51;;;;;;;7.10;2.50;;;;;;;19.08;73.06;98492.84;105797;1254;73479;-23
2023/07/13 03:54:20;;;;;;;4.60;2.10;;;;;;;19.06;73.60;98494.29;105957;1257;61834;-23
2023/07/13 03:56:47;;;;;;;2.50;2.00;;;;;;;19.46;73.14;98492.34;105943;1251;61057;-23
2023/07/13 03:59:15;;;;;;;5.70;2.30;;;;;;;19.83;71.28;98496.42;105846;1251;74475;-23
2023/07/13 04:01:43;;;;;;;6.10;2.60;;;;;;;19.78;71.33;98495.27;105973;1251;74190;-23
2023/07/13 04:04:12;;;;;;;7.10;2.40;;;;;;;19.70;71.90;98500.64;105826;1256;71221;-23
2023/07/13 04:06:40;;;;;;;4.20;2.60;;;;;;;19.71;71.69;98501.75;105841;1251;61141;-23
2023/07/13 04:09:08;;;;;;;3.60;2.20;;;;;;;19.58;72.51;98504.14;105867;1258;61157;-23
2023/07/13 04:11:36;;;;;;;6.00;3.00;;;;;;;19.50;72.30;98506.41;105619;1262;73806;-23
2023/07/13 04:14:04;;;;;;;2.30;1.90;;;;;;;19.47;72.77;98512.93;105909;1254;74388;-23
2023/07/13 04:16:32;;;;;;;5.20;2.70;;;;;;;20.04;71.79;98512.39;105786;1254;72339;-23
2023/07/13 04:18:59;;;;;;;3.50;2.50;;;;;;;20.59;69.85;98510.52;105766;1254;61127;-23
2023/07/13 04:21:27;;;;;;;4.20;2.60;;;;;;;20.54;69.42;98521.81;105779;1256;61069;-23
2023/07/13 04:23:54;;;;;;;3.30;2.50;;;;;;;20.30;70.55;98529.23;105709;1251;73778;-23
2023/07/13 04:26:22;;;;;;;2.80;2.40;;;;;;;20.24;70.66;98532.54;105960;1257;73611;-23
2023/07/13 04:28:50;;;;;;;2.70;2.50;;;;;;;20.10;71.30;98534.60;105874;1251;72682;-23
2023/07/13 04:31:17;;;;;;;4.80;2.90;;;;;;;20.00;71.97;98528.23;105731;1259;61099;-23
2023/07/13 04:33:45;;;;;;;2.80;2.10;;;;;;;19.90;72.84;98530.72;105734;1259;61195;-23
2023/07/13 04:36:16;;;;;;;3.50;2.20;;;;;;;20.39;72.08;98525.30;105806;1252;72374;-23
2023/07/13 04:38:43;;;;;;;4.00;2.30;;;;;;;20.91;70.14;98527.09;105702;1259;74591;-23
2023/07/13 04:41:10;;;;;;;4.20;2.50;;;;;;;21.00;69.19;98529.92;105797;1251;72591;-23
2023/07/13 04:43:38;;;;;;;4.10;3.10;;;;;;;20.98;69.35;98525.86;105866;1257;62215;-23
2023/07/13 04:46:11;;;;;;;5.40;2.90;;;;;;;20.79;70.81;98521.30;105895;1256;61134;-23
2023/07/13 04:48:38;;;;;;;;;;;;;;;20.63;70.75;98517.73;105755;1258;73802;-23
2023/07/13 04:51:06;;;;;;;3.00;2.70;;;;;;;20.47;71.88;98517.09;105993;1251;74113;-23
2023/07/13 04:53:34;;;;;;;8.30;3.10;;;;;;;20.45;71.97;98512.39;105945;1251;72689;-23
2023/07/13 04:56:01;;;;;;;12.50;3.70;;;;;;;20.46;72.52;98512.63;105742;1254;61687;-23
2023/07/13 04:58:30;;;;;;;6.80;3.00;;;;;;;20.99;71.96;98511.80;105639;1259;61096;-23
2023/07/13 05:01:04;;;;;;;5.10;2.70;;;;;;;21.55;70.10;98513.75;105949;1256;73802;-23
2023/07/13 05:03:31;;;;;;;4.90;3.80;;;;;;;21.58;68.53;98518.39;105847;1257;74262;-23
2023/07/13 05:06:00;;;;;;;4.90;3.60;;;;;;;21.47;70.23;98517.10;105903;1251;72629;-23
2023/07/13 05:08:28;;;;;;;4.50;3.50;;;;;;;21.53;69.88;98516.08;105554;1251;61106;-23
2023/07/13 05:10:55;;;;;;;4.90;3.80;;;;;;;21.52;69.69;98514.23;105699;1256;61176;-23
2023/07/13 05:13:23;;;;;;;6.10;4.60;;;;;;;21.18;71.06;98513.73;105741;1251;73700;-23
2023/07/13 05:15:57;;;;;;;4.80;3.30;;;;;;;21.29;71.50;98511.65;105816;1257;74272;-23
2023/07/13 05:18:24;;;;;;;3.70;3.20;;;;;;;21.87;69.38;98520.80;105760;1251;72670;-23
2023/07/13 05:21:06;;;;;;;4.10;2.70;;;;;;;22.50;67.54;98526.02;105878;1251;61147;-23
2023/07/13 05:23:34;;;;;;;5.70;3.90;;;;;;;22.78;66.58;98525.59;105742;1257;61112;-23
2023/07/13 05:26:01;;;;;;;6.80;3.50;;;;;;;22.74;66.63;98526.69;105518;1261;73808;-23
2023/07/13 05:28:30;;;;;;;6.20;3.90;;;;;;;22.69;66.69;98525.84;105945;1251;74276;-23
2023/07/13 05:30:57;;;;;;;5.00;3.90;;;;;;;22.96;66.25;98521.71;105604;1252;72558;-23
2023/07/13 05:33:24;;;;;;;5.20;3.80;;;;;;;22.82;65.98;98526.38;105865;1254;61074;-23
2023/07/13 05:35:51;;;;;;;5.90;4.70;;;;;;;23.15;66.14;98524.36;105856;1251;61122;-23
2023/07/13 05:38:19;;;;;;;4.30;3.80;;;;;;;23.47;65.15;98520.68;105662;1251;73803;-23
2023/07/13 05:40:46;;;;;;;5.30;4.20;;;;;;;23.64;64.10;98525.39;105968;1255;74341;-23
2023/07/13 05:43:13;;;;;;;6.30;4.50;;;;;;;23.70;64.77;98517.64;105914;1251;71672;-23
2023/07/13 05:45:40;;;;;;;4.40;4.00;;;;;;;23.84;63.70;98509.02;105809;1251;61085;-23
2023/07/13 05:48:07;;;;;;;5.40;4.40;;;;;;;23.84;64.41;98507.60;105793;1257;61140;-23
2023/07/13 05:50:35;;;;;;;7.60;4.80;;;;;;;23.81;64.43;98508.58;105842;1254;73639;-23
2023/07/13 05:53:02;;;;;;;6.20;4.60;;;;;;;23.98;65.08;98515.20;105911;1251;74799;-23
2023/07/13 05:55:29;;;;;;;7.20;5.20;;;;;;;24.11;64.08;98513.17;105887;1254;72623;-23
2023/07/13 05:57:57;;;;;;;5.90;4.80;;;;;;;24.17;64.04;98517.15;105751;1251;61027;-23
2023/07/13 06:00:25;;;;;;;6.40;5.00;;;;;;;24.29;63.47;98520.69;105719;1257;61249;-23
2023/07/13 06:02:52;;;;;;;7.30;5.20;;;;;;;24.34;63.80;98521.40;105808;1251;73753;-23
2023/07/13 06:05:19;;;;;;;10.70;5.70;;;;;;;24.43;63.77;98523.96;105758;1251;74206;-22
2023/07/13 06:07:46;;;;;;;6.50;5.10;;;;;;;24.48;63.17;98530.59;105705;1251;72976;-22
2023/07/13 06:10:13;;;;;;;7.90;5.70;;;;;;;24.58;63.19;98530.52;105862;1251;61064;-23
2023/07/13 06:12:40;;;;;;;7.30;6.10;;;;;;;24.55;62.80;98526.48;105905;1256;61131;-22
2023/07/13 06:15:08;;;;;;;6.80;5.40;;;;;;;24.50;63.12;98526.31;105996;1251;72739;-23
2023/07/13 06:17:36;;;;;;;5.70;5.20;;;;;;;24.42;64.07;98527.24;105734;1254;74197;-23
2023/07/13 06:20:03;;;;;;;6.10;5.50;;;;;;;24.35;64.35;98529.98;105782;1257;72646;-23
2023/07/13 06:22:31;;;;;;;9.10;5.50;;;;;;;24.25;65.05;98527.98;105664;1260;61173;-22
2023/07/13 06:24:59;;;;;;;8.60;6.30;;;;;;;24.22;65.23;98525.63;105933;1251;61173;-22
2023/07/13 06:27:25;;;;;;;7.00;5.70;;;;;;;24.33;64.49;98532.05;105884;1251;73677;-23
2023/07/13 06:29:54;;;;;;;7.30;5.50;;;;;;;24.42;64.39;98535.33;105841;1258;73188;-22
2023/07/13 06:32:21;;;;;;;8.60;6.10;;;;;;;24.59;63.72;98531.58;105996;1251;72325;-23
2023/07/13 06:34:48;;;;;;;8.00;6.30;;;;;;;24.73;63.69;98533.78;105919;1251;61187;-22
2023/07/13 06:37:15;;;;;;;11.40;5.60;;;;;;;24.88;63.50;98533.18;105816;1257;61154;-22
2023/07/13 06:39:41;;;;;;;7.60;6.00;;;;;;;24.99;62.64;98531.95;105845;1252;73785;-23
2023/07/13 06:42:09;;;;;;;7.70;5.90;;;;;;;25.01;62.08;98533.80;105944;1257;74285;-23
2023/07/13 06:44:39;;;;;;;7.30;5.70;;;;;;;25.09;61.69;98535.67;105748;1251;72739;-22
2023/07/13 06:47:06;;;;;;;7.50;6.20;;;;;;;25.17;62.70;98532.54;105902;1251;61179;-24
2023/07/13 06:49:34;;;;;;;7.40;5.70;;;;;;;25.24;62.27;98533.86;105806;1257;61170;-23
2023/07/13 06:52:01;;;;;;;7.90;6.20;;;;;;;25.33;62.89;98535.96;105705;1251;72822;-23
2023/07/13 06:54:28;;;;;;;7.30;5.70;;;;;;;25.47;62.00;98542.61;105588;1251;74290;-24
2023/07/13 06:56:56;;;;;;;7.10;5.60;;;;;;;25.53;61.84;98545.58;105917;1252;72472;-23
2023/07/13 06:59:23;;;;;;;8.20;5.80;;;;;;;25.13;62.68;98549.08;105785;1251;61172;-23
2023/07/13 07:01:50;;;;;;;6.00;5.40;;;;;;;24.89;64.15;98553.49;105938;1255;61134;-23
2023/07/13 07:04:17;;;;;;;8.90;6.30;;;;;;;25.16;64.16;98559.42;105872;1251;73788;-21
2023/07/13 07:06:46;;;;;;;11.00;5.70;;;;;;;25.39;64.09;98555.20;105976;1257;74570;-22
2023/07/13 07:09:13;;;;;;;6.40;5.60;;;;;;;25.46;63.41;98559.86;105865;1251;72496;-22
2023/07/13 07:11:40;;;;;;;7.30;6.10;;;;;;;25.40;63.17;98562.08;105704;1252;61045;-22
2023/07/13 07:14:27;;;;;;;7.70;6.40;;;;;;;25.41;62.18;98559.15;105691;1256;61109;-22
2023/07/13 07:16:54;;;;;;;7.60;6.70;;;;;;;25.57;61.59;98560.80;105708;1255;73751;-22
2023/07/13 07:19:21;;;;;;;9.00;6.50;;;;;;;25.71;61.64;98561.55;105742;1257;74026;-22
2023/07/13 07:21:48;;;;;;;7.20;6.00;;;;;;;25.87;61.67;98553.95;105886;1252;72638;-22
2023/07/13 07:24:15;;;;;;;8.20;6.10;;;;;;;25.90;61.36;98554.30;105922;1251;61138;-22
2023/07/13 07:26:42;;;;;;;10.90;6.90;;;;;;;25.80;61.83;98550.69;105917;1251;61112;-22
2023/07/13 07:29:12;;;;;;;8.00;6.30;;;;;;;25.86;61.88;98549.67;105845;1251;73858;-21
2023/07/13 07:31:42;;;;;;;10.40;6.80;;;;;;;25.90;61.91;98553.23;105770;1256;73098;-22
2023/07/13 07:34:12;;;;;;;10.60;6.20;;;;;;;25.82;62.01;98555.31;105844;1251;72705;-22
2023/07/13 07:36:40;;;;;;;8.20;5.70;;;;;;;25.75;61.99;98554.11;105623;1254;61122;-22
2023/07/13 07:39:09;;;;;;;7.40;6.20;;;;;;;25.87;63.53;98559.56;105609;1252;61150;-22
2023/07/13 07:41:37;;;;;;;7.60;6.10;;;;;;;25.88;62.45;98557.35;105933;1251;73673;-22
2023/07/13 07:44:09;;;;;;;9.90;6.80;;;;;;;25.89;63.06;98561.20;105904;1256;73101;-22
2023/07/13 07:46:36;;;;;;;8.50;6.60;;;;;;;25.90;61.98;98565.81;105747;1259;71632;-22
2023/07/13 07:49:03;;;;;;;8.20;6.50;;;;;;;26.00;62.75;98558.36;105918;1251;61049;-22
2023/07/13 07:51:31;;;;;;;7.50;6.50;;;;;;;26.02;62.40;98556.64;105966;1257;61054;-22
2023/07/13 07:53:58;;;;;;;9.00;6.40;;;;;;;26.24;60.77;98563.31;105831;1251;73834;-22
2023/07/13 07:56:25;;;;;;;11.60;7.00;;;;;;;26.43;60.66;98563.09;105743;1254;73283;-22
2023/07/13 07:58:55;;;;;;;8.10;6.40;;;;;;;26.53;60.91;98557.30;105838;1254;71199;-22
2023/07/13 08:01:25;;;;;;;8.70;6.80;;;;;;;26.65;61.25;98557.20;105884;1257;61137;-22
2023/07/13 08:03:55;;;;;;;11.90;6.50;;;;;;;26.41;60.89;98559.91;105936;1251;61096;-22
2023/07/13 08:06:25;;;;;;;8.90;7.00;;;;;;;26.20;61.03;98564.77;105922;1251;73941;-22
2023/07/13 08:08:55;;;;;;;8.60;6.90;;;;;;;26.26;61.88;98564.72;105681;1257;74398;-22
2023/07/13 08:11:22;;;;;;;7.70;6.90;;;;;;;26.28;62.05;98568.77;105907;1251;72628;-22
2023/07/13 08:13:52;;;;;;;7.60;6.80;;;;;;;26.08;62.29;98569.66;105914;1257;61176;-22
2023/07/13 08:16:22;;;;;;;8.90;7.60;;;;;;;26.05;62.26;98573.88;105863;1251;61147;-23
2023/07/13 08:18:50;;;;;;;7.70;6.50;;;;;;;26.31;62.74;98578.42;105721;1251;73829;-21
2023/07/13 08:21:19;;;;;;;7.30;6.60;;;;;;;26.55;61.31;98571.77;105946;1251;74298;-22
2023/07/13 08:23:46;;;;;;;9.60;7.10;;;;;;;26.66;60.38;98575.33;105892;1254;71403;-23
2023/07/13 08:26:13;;;;;;;8.30;7.40;;;;;;;26.45;60.28;98584.11;105935;1251;61029;-22
2023/07/13 08:28:40;;;;;;;8.40;7.00;;;;;;;26.35;61.37;98588.15;105868;1255;61170;-22
2023/07/13 08:31:07;;;;;;;8.60;7.60;;;;;;;26.40;61.69;98580.23;105727;1252;73763;-23
2023/07/13 08:33:36;;;;;;;8.00;7.20;;;;;;;26.40;61.73;98576.34;105654;1257;74397;-23
2023/07/13 08:36:04;;;;;;;10.30;7.40;;;;;;;26.57;60.78;98573.67;105826;1254;71484;-23
2023/07/13 08:38:31;;;;;;;8.30;7.50;;;;;;;26.79;59.75;98572.45;105823;1251;61044;-21
2023/07/13 08:40:59;;;;;;;15.90;8.40;;;;;;;26.85;59.27;98571.00;105623;1259;61205;-21
2023/07/13 08:43:30;;;;;;;10.50;7.20;;;;;;;26.86;60.39;98567.60;105747;1251;74222;-23
2023/07/13 08:46:03;;;;;;;12.50;7.30;;;;;;;27.20;58.43;98576.58;105726;1259;73136;-23
2023/07/13 08:48:30;;;;;;;;;;;;;;;27.58;57.62;98573.14;105921;1257;70639;-21
2023/07/13 08:51:12;;;;;;;9.10;7.30;;;;;;;28.13;56.82;98567.98;105873;1252;61138;-21
2023/07/13 08:53:42;;;;;;;10.90;7.30;;;;;;;28.44;56.30;98567.21;105862;1256;61188;-22
2023/07/13 08:56:24;;;;;;;8.20;6.90;;;;;;;28.17;54.22;98561.67;105544;1259;72584;-21
2023/07/13 08:59:06;;;;;;;8.60;7.60;;;;;;;28.22;55.80;98566.44;105573;1254;74090;-21
2023/07/13 09:01:58;;;;;;;8.90;7.90;;;;;;;28.54;55.33;98564.78;105497;1255;72367;-21
2023/07/13 09:04:30;;;;;;;9.40;7.80;;;;;;;28.56;55.07;98556.50;105654;1251;61684;-22
2023/07/13 09:07:10;;;;;;;8.70;7.60;;;;;;;28.15;54.52;98555.08;105779;1257;61271;-21
2023/07/13 09:09:47;;;;;;;9.90;7.20;;;;;;;28.01;56.00;98552.66;105738;1258;74306;-22
2023/07/13 09:12:20;;;;;;;9.40;7.70;;;;;;;28.16;55.66;98555.35;105849;1254;74815;-22
2023/07/13 09:14:50;;;;;;;10.80;7.90;;;;;;;28.43;55.25;98556.50;105811;1257;71349;-21
2023/07/13 09:17:17;;;;;;;9.40;7.70;;;;;;;28.41;55.64;98554.81;105722;1257;61506;-22
2023/07/13 09:19:44;;;;;;;9.90;7.50;;;;;;;28.31;54.31;98554.20;105871;1257;61090;-21
2023/07/13 09:22:16;;;;;;;13.30;7.70;;;;;;;28.19;53.59;98545.69;105882;1251;73514;-23
2023/07/13 09:24:56;;;;;;;7.70;6.90;;;;;;;28.36;53.08;98541.73;105782;1259;73353;-24
2023/07/13 09:27:28;;;;;;;7.80;7.00;;;;;;;28.55;51.72;98542.20;105878;1258;71304;-21
2023/07/13 09:30:05;;;;;;;9.10;7.60;;;;;;;28.26;52.67;98544.89;105752;1251;61573;-23
2023/07/13 09:32:32;;;;;;;9.00;7.30;;;;;;;28.18;53.67;98540.17;105894;1260;61166;-22
2023/07/13 09:35:02;;;;;;;11.90;7.00;;;;;;;28.43;54.75;98536.31;105777;1251;73731;-22
2023/07/13 09:37:32;;;;;;;7.60;6.90;;;;;;;28.51;52.99;98528.34;105932;1257;74104;-22
2023/07/13 09:40:00;;;;;;;9.60;7.60;;;;;;;28.22;53.49;98526.29;105995;1256;71527;-22
2023/07/13 09:42:28;;;;;;;8.70;7.60;;;;;;;28.17;54.09;98522.93;105890;1256;61140;-22
2023/07/13 09:44:56;;;;;;;8.50;7.60;;;;;;;28.27;53.96;98523.75;105983;1256;61099;-22
2023/07/13 09:47:29;;;;;;;7.90;7.10;;;;;;;28.76;53.22;98517.61;105950;1257;73869;-22
2023/07/13 09:50:03;;;;;;;7.50;6.80;;;;;;;29.32;51.87;98517.35;105700;1260;74426;-22
2023/07/13 09:52:49;;;;;;;;;;;;;;;29.24;50.54;98511.72;105448;1251;71420;-23
2023/07/13 09:55:29;;;;;;;8.40;6.50;;;;;;;29.56;50.49;98511.50;105676;1253;61163;-22
2023/07/13 09:57:56;;;;;;;6.90;5.70;;;;;;;30.18;47.74;98505.35;105740;1254;61096;-22
2023/07/13 10:00:28;;;;;;;8.10;6.20;;;;;;;30.72;47.20;98498.85;105972;1256;66818;-23
2023/07/13 10:03:14;;;;;;;7.50;6.70;;;;;;;30.89;45.75;98497.31;105898;1257;73404;-22
2023/07/13 10:05:42;;;;;;;8.20;6.90;;;;;;;30.85;45.89;98497.31;105908;1257;63760;-22
2023/07/13 10:08:39;;;;;;;8.50;7.40;;;;;;;30.76;48.12;98505.36;105557;1254;61147;-23
2023/07/13 10:11:17;;;;;;;7.90;7.20;;;;;;;30.64;47.76;98503.48;105654;1257;61051;-23
2023/07/13 10:14:10;;;;;;;16.30;7.70;;;;;;;30.84;47.08;98508.45;105619;1259;65094;-22
2023/07/13 10:16:37;;;;;;;7.80;7.10;;;;;;;31.26;45.23;98499.98;105724;1251;65739;-22
2023/07/13 10:19:05;;;;;;;8.20;6.90;;;;;;;30.92;45.56;98499.56;105638;1260;64067;-22
2023/07/13 10:21:43;;;;;;;8.50;6.30;;;;;;;30.38;47.04;98499.99;105759;1255;61008;-22
2023/07/13 10:24:14;;;;;;;8.40;6.80;;;;;;;30.06;47.74;98494.77;105697;1268;61169;-22
2023/07/13 10:26:45;;;;;;;7.30;6.30;;;;;;;30.26;47.78;98493.45;105907;1260;64292;-22
2023/07/13 10:29:14;;;;;;;7.90;6.00;;;;;;;30.51;45.46;98493.11;105701;1260;65511;-22
2023/07/13 10:31:44;;;;;;;6.40;5.80;;;;;;;30.94;44.16;98501.38;105990;1251;64033;-22
2023/07/13 10:34:11;;;;;;;7.70;5.80;;;;;;;31.11;43.75;98505.52;105893;1257;61115;-21
2023/07/13 10:36:47;;;;;;;7.60;6.50;;;;;;;30.89;45.34;98504.56;105966;1256;61082;-24
2023/07/13 10:39:17;;;;;;;9.20;6.90;;;;;;;30.46;46.11;98499.52;105706;1260;64564;-23
2023/07/13 10:41:44;;;;;;;7.70;6.30;;;;;;;30.64;45.73;98498.22;105718;1260;65705;-24
2023/07/13 10:44:26;;;;;;;8.10;6.60;;;;;;;31.14;44.82;98494.73;105949;1257;64007;-22
2023/07/13 10:47:07;;;;;;;9.40;6.90;;;;;;;30.97;44.96;98495.45;105878;1254;61112;-22
2023/07/13 10:49:35;;;;;;;7.60;6.50;;;;;;;30.31;46.91;98503.42;105849;1260;61170;-22
2023/07/13 10:52:03;;;;;;;7.70;6.60;;;;;;;30.13;47.65;98504.50;105711;1260;73899;-23
2023/07/13 10:54:34;;;;;;;7.40;6.60;;;;;;;30.61;47.00;98503.73;105693;1259;74724;-23
2023/07/13 10:57:19;;;;;;;7.90;7.10;;;;;;;31.05;46.29;98500.45;105690;1251;62530;-23
2023/07/13 11:00:17;;;;;;;8.70;7.00;;;;;;;31.06;45.29;98504.80;105898;1253;61054;-23
2023/07/13 11:02:56;;;;;;;18.40;7.10;;;;;;;31.21;45.19;98499.17;105670;1251;61144;-23
2023/07/13 11:05:28;;;;;;;7.70;6.90;;;;;;;31.65;45.00;98493.52;105771;1260;65253;-22
2023/07/13 11:08:16;;;;;;;7.30;6.60;;;;;;;32.12;43.83;98492.65;105893;1259;74177;-23
2023/07/13 11:10:53;;;;;;;9.00;6.60;;;;;;;31.72;42.77;98499.95;105753;1258;64054;-24
2023/07/13 11:13:47;;;;;;;12.00;7.00;;;;;;;31.08;45.34;98498.33;105773;1251;61632;-23
2023/07/13 11:16:17;;;;;;;10.80;6.80;;;;;;;30.85;46.15;98500.44;105886;1262;61092;-23
2023/07/13 11:19:05;;;;;;;7.80;7.00;;;;;;;30.95;45.39;98500.62;105828;1251;65302;-23
2023/07/13 11:21:32;;;;;;;9.30;6.90;;;;;;;30.57;45.91;98498.85;105857;1256;65593;-22
2023/07/13 11:24:02;;;;;;;8.20;6.20;;;;;;;30.43;44.87;98493.88;105956;1251;64038;-22
2023/07/13 11:27:10;;;;;;;6.60;5.80;;;;;;;30.83;45.16;98489.46;105908;1251;61120;-23
2023/07/13 11:29:37;;;;;;;6.20;5.60;;;;;;;31.43;45.38;98488.25;105592;1259;61144;-23
2023/07/13 11:32:26;;;;;;;7.00;6.30;;;;;;;31.69;44.58;98485.66;105970;1256;65180;-23
2023/07/13 11:34:53;;;;;;;7.00;6.10;;;;;;;31.63;42.88;98485.41;105779;1259;64306;-23
2023/07/13 11:37:21;;;;;;;7.10;6.10;;;;;;;31.56;42.97;98482.55;105891;1251;64653;-23